KDPA/DPA METAR and TAF weather

Enter ICAO airport designator
Station Type Date Time Source
KDPA METAR 2019/02/23 16:59 UTC NOAA

KDPA 231659Z 05008KT 1SM R02L/5000FT +RA BR SCT006 BKN014 OVC031 01/M01 A2996 RMK AO2 P0004 T00111006 $


Station Type Date Time Source
KDPA Decoded METAR 2019/02/23 16:59 UTC NOAA

CHICAGO/WEST CH DUPAGE, IL, United States (KDPA) 41-54N 88-15W 230M
Feb 23, 2019 - 11:59 AM EST / 2019.02.23 1659 UTC
Wind: from the NE (050 degrees) at 9 MPH (8 KT):0
Visibility: 1 mile(s):0
Sky conditions: overcast
Weather: heavy rain; mist
Precipitation last hour: 0.04 inches
Temperature: 34.0 F (1.1 C)
Windchill: 26 F (-3 C):1
Dew Point: 30.9 F (-0.6 C)
Relative Humidity: 88%
Pressure (altimeter): 29.96 in. Hg (1014 hPa)
ob: KDPA 231659Z 05008KT 1SM R02L/5000FT +RA BR SCT006 BKN014 OVC031 01/M01 A2996 RMK AO2 P0004 T00111006
cycle: 17

Station Type Date Time Source
KDPA TAF 2019/02/23 16:12 UTC NOAA

TAF
AMD KDPA 231609Z 2316/2412 VRB06KT 1 1/2SM -SHRA BR OVC009
TEMPO 2316/2320 1SM -SHRA BR OVC006
FM232000 09009KT 1SM -DZ BR VCSH OVC004
TEMPO 2322/2401 1/2SM FG OVC003
FM240100 13012G18KT 2SM -SHRA BR VCTS OVC004CB WS020/16035KT
FM240400 16012G18KT 5SM BR VCSH SCT004 OVC010 WS020/22045KT
FM240600 21014G21KT 6SM BR VCSH SCT008 OVC015 WS020/24045KT
FM241000 25020G32KT 6SM -SHSN OVC015


Example: see airport list